• Join FlightAware (Why Join?)
  • Login
  • US Flag 
07:48PM EST


 

Airport Tracker/Info


-or-


 

Live Flight TrackerFlight Track Log ✈ N362JV ✈ 17-Jun-2014 ✈ 8A7 - KRIC

Flight Track Log - Related Links

Times and Time Zones

All times are in EDT time to prevent confusion due to time zone crossing. See the N362JV flight status page for this flight to view local times or setup timezone preferences in your user account.

Time Position Orientation Groundspeed Altitude Reporting Facility
EDT Latitude Longitude Course Direction KTS MPH feet Rate Location/Type
10:32AM 36.0010 -80.2648 58° Northeast  Level FlightAware Approximate
10:33AM 36.0200 -80.2267 58° Northeast  Level FlightAware Approximate
10:34AM 36.0396 -80.1891 55° Northeast  Level FlightAware Approximate
10:35AM 36.0605 -80.1526 55° Northeast  Level FlightAware Approximate
10:36AM 36.0813 -80.1160 55° Northeast  Level FlightAware Approximate
10:37AM 36.1020 -80.0793 58° Northeast  Level FlightAware Approximate
10:38AM 36.1213 -80.0415 56° Northeast  Level FlightAware Approximate
10:39AM 36.1416 -80.0044 56° Northeast  Level FlightAware Approximate
10:39AM 36.2858 -79.6375 90° East 162 186 11,500  Level Washington Center
10:40AM 36.1619 -79.9673 56° Northeast  Level FlightAware Approximate
10:40AM 36.3125 -79.5875 56° Northeast 178 205 11,500  Level Washington Center
10:41AM 36.1821 -79.9301 56° Northeast  Level FlightAware Approximate
10:41AM 36.3439 -79.5297 56° Northeast 184 212 11,500  Level Washington Center
10:42AM 36.2024 -79.8930 56° Northeast  Level FlightAware Approximate
10:42AM 36.3725 -79.4769 56° Northeast 184 212 11,500  Level Washington Center
10:43AM 36.2167 -79.8536 90° East  Level FlightAware Approximate
10:43AM 36.4014 -79.4267 54° Northeast 189 217 11,400  Level Washington Center
10:44AM 36.4281 -79.3739 58° Northeast 189 217 11,400  Level Washington Center
10:45AM 36.4569 -79.3211 56° Northeast 189 217 11,400  Level Washington Center
10:46AM 36.4878 -79.2656 55° Northeast 189 217 11,400  Level Washington Center
10:47AM 36.5167 -79.2103 57° Northeast 189 217 11,400  Level Washington Center
10:48AM 36.5453 -79.1597 55° Northeast 189 217 11,400  Level Washington Center
10:49AM 36.5739 -79.1094 55° Northeast 184 212 11,400  Level Washington Center
10:50AM 36.6047 -79.0539 55° Northeast 184 212 11,500  Climbing Washington Center
10:51AM 36.6333 -78.9981 57° Northeast 179 206 11,500  Level Washington Center
10:52AM 36.6619 -78.9450 56° Northeast 184 212 11,500  Level Washington Center
10:53AM 36.6908 -78.8867 58° Northeast 191 220 11,500  Level Washington Center
10:54AM 36.7194 -78.8336 56° Northeast 191 220 11,500  Level Washington Center
10:55AM 36.7481 -78.7778 57° Northeast 191 220 11,500  Level Washington Center
10:56AM 36.7764 -78.7244 56° Northeast 191 220 11,500  Level Washington Center
10:57AM 36.8050 -78.6711 56° Northeast 191 220 11,500  Level Washington Center
10:58AM 36.8314 -78.6178 58° Northeast 186 214 11,500  Level Washington Center
10:59AM 36.8619 -78.5617 56° Northeast 186 214 11,500  Level Washington Center
11:00AM 36.8906 -78.5083 56° Northeast 186 214 11,500  Level Washington Center
11:01AM 36.9167 -78.4600 56° Northeast 186 214 11,500  Level Washington Center
11:02AM 36.9472 -78.4014 57° Northeast 191 220 11,500  Level Washington Center
11:03AM 36.9778 -78.3478 54° Northeast 191 220 11,500  Level Washington Center
11:04AM 37.0061 -78.2917 58° Northeast 191 220 11,500  Level Washington Center
11:05AM 37.0344 -78.2378 57° Northeast 191 220 11,500  Level Washington Center
11:06AM 37.0628 -78.1842 56° Northeast 191 220 11,500  Level Washington Center
11:07AM 37.0889 -78.1278 60° Northeast 191 220 11,500  Level Washington Center
11:08AM 37.1172 -78.0742 56° Northeast 185 213 11,500 -60 Level Washington Center
11:09AM 37.1456 -78.0178 58° Northeast 185 213 11,400 -480 Descending Washington Center
11:10AM 37.1758 -77.9561 58° Northeast 190 219 10,600 -840 Descending Washington Center
11:11AM 37.2083 -77.8944 56° Northeast 200 230 9,800 -840 Descending Washington Center
11:12AM 37.2431 -77.8303 56° Northeast 205 236 9,000 -840 Descending Washington Center
11:13AM 37.2733 -77.7686 58° Northeast 205 236 8,200 -840 Descending Washington Center
11:14AM 37.3036 -77.7094 57° Northeast 205 236 7,400 -900 Descending Washington Center
11:16AM 37.3667 -77.5667 61° Northeast 200 230 5,400 -900 Descending Potomac TRACON
11:17AM 37.4000 -77.5167 50° Northeast 197 227 4,700 -900 Descending Potomac TRACON
11:18AM 37.4167 -77.4500 73° East 199 229 3,700 -900 Descending Potomac TRACON
11:19AM 37.4333 -77.4000 67° East 183 211 3,100 -840 Descending Potomac TRACON
11:20AM 37.4500 -77.3500 67° East 133 153 2,200 -1,080 Descending Potomac TRACON
11:21AM 37.4833 -77.3333 22° Northeast 111 128 1,000 -1,200 Descending Potomac TRACON
11:23AM 37.5000 -77.3167 58° Northeast  Level FlightAware Approximate
11:30AM 37.5052 -77.3197 58° Northeast  Level Estimated
11:31AM 37.5052 -77.3197 155° Southeast  Level Estimated